Terminal Aerodrome Forecast
Issued by NWS Wilmington, OH

Current Version | Previous Version | Graphics & Text | Print | Product List | Glossary On
Versions: 1 2 3 4 5 6 7 8 9 10 11 12 13 14 15 16 17 18 19 20 21 22 23 24 25
000
FTUS41 KILN 231400 AAA
TAFCVG
TAF AMD
KCVG 231458Z 2315/2418 17009KT 4SM -DZ BR OVC006
     FM231800 17006KT 5SM -SHRA BR OVC008
     FM232100 12004KT 5SM -SHRA BR OVC007
     FM240400 12005KT 5SM BR OVC010
     FM240700 14008KT 5SM -SHRA BR OVC007
     FM241600 23011KT P6SM OVC015=

USA.gov is the U.S. government's official web portal to all federal, state and local government web resources and services.